sensor_id;sensor_type;location;lat;lon;timestamp;pressure;altitude;pressure_sealevel;temperature;humidity
54870;BME280;40756;-37.950;145.008;2023-07-28T00:01:08;101484.80;;;14.55;55.60
54870;BME280;40756;-37.950;145.008;2023-07-28T00:03:38;101484.90;;;14.77;55.27
54870;BME280;40756;-37.950;145.008;2023-07-28T00:06:07;101485.57;;;14.56;55.01
54870;BME280;40756;-37.950;145.008;2023-07-28T00:08:37;101483.95;;;14.92;55.18
54870;BME280;40756;-37.950;145.008;2023-07-28T00:11:10;101484.88;;;15.00;55.35
54870;BME280;40756;-37.950;145.008;2023-07-28T00:13:40;101483.64;;;15.11;55.49
54870;BME280;40756;-37.950;145.008;2023-07-28T00:16:11;101491.62;;;15.13;54.79
54870;BME280;40756;-37.950;145.008;2023-07-28T00:18:40;101489.71;;;14.96;54.78
54870;BME280;40756;-37.950;145.008;2023-07-28T00:21:10;101493.57;;;14.99;54.22
54870;BME280;40756;-37.950;145.008;2023-07-28T00:23:39;101479.69;;;15.09;54.26
54870;BME280;40756;-37.950;145.008;2023-07-28T00:26:09;101476.04;;;14.92;53.52
54870;BME280;40756;-37.950;145.008;2023-07-28T00:28:38;101477.70;;;15.56;53.80
54870;BME280;40756;-37.950;145.008;2023-07-28T00:31:08;101469.59;;;15.17;53.11
54870;BME280;40756;-37.950;145.008;2023-07-28T00:33:38;101482.61;;;15.45;52.69
54870;BME280;40756;-37.950;145.008;2023-07-28T00:36:08;101481.25;;;14.79;52.96
54870;BME280;40756;-37.950;145.008;2023-07-28T00:38:38;101479.42;;;15.26;53.07
54870;BME280;40756;-37.950;145.008;2023-07-28T00:41:08;101471.96;;;15.60;52.35
54870;BME280;40756;-37.950;145.008;2023-07-28T00:43:37;101466.18;;;15.40;52.04
54870;BME280;40756;-37.950;145.008;2023-07-28T00:46:08;101462.10;;;15.10;52.13
54870;BME280;40756;-37.950;145.008;2023-07-28T00:48:38;101457.36;;;15.36;52.20
54870;BME280;40756;-37.950;145.008;2023-07-28T00:51:08;101471.33;;;15.53;52.40
54870;BME280;40756;-37.950;145.008;2023-07-28T00:53:38;101491.68;;;15.04;52.41
54870;BME280;40756;-37.950;145.008;2023-07-28T00:56:08;101487.69;;;15.36;51.75
54870;BME280;40756;-37.950;145.008;2023-07-28T00:58:39;101484.27;;;15.72;51.18
54870;BME280;40756;-37.950;145.008;2023-07-28T01:01:09;101482.02;;;15.31;51.77
54870;BME280;40756;-37.950;145.008;2023-07-28T01:03:39;101488.23;;;15.42;51.86
54870;BME280;40756;-37.950;145.008;2023-07-28T01:06:18;101487.26;;;15.99;50.52
54870;BME280;40756;-37.950;145.008;2023-07-28T01:08:53;101492.04;;;15.81;49.88
54870;BME280;40756;-37.950;145.008;2023-07-28T01:11:25;101491.65;;;15.57;49.93
54870;BME280;40756;-37.950;145.008;2023-07-28T01:13:55;101487.58;;;16.00;49.59
54870;BME280;40756;-37.950;145.008;2023-07-28T01:16:25;101479.62;;;15.32;49.82
54870;BME280;40756;-37.950;145.008;2023-07-28T01:18:54;101475.04;;;15.99;49.01
54870;BME280;40756;-37.950;145.008;2023-07-28T01:21:28;101471.11;;;16.26;48.50
54870;BME280;40756;-37.950;145.008;2023-07-28T01:24:10;101471.19;;;16.40;47.98
54870;BME280;40756;-37.950;145.008;2023-07-28T01:26:45;101465.45;;;16.77;48.16
54870;BME280;40756;-37.950;145.008;2023-07-28T01:29:15;101461.74;;;16.51;47.56
54870;BME280;40756;-37.950;145.008;2023-07-28T01:31:47;101462.31;;;15.98;47.38
54870;BME280;40756;-37.950;145.008;2023-07-28T01:34:17;101465.49;;;16.12;47.24
54870;BME280;40756;-37.950;145.008;2023-07-28T01:36:46;101472.46;;;16.76;46.82
54870;BME280;40756;-37.950;145.008;2023-07-28T01:39:16;101480.10;;;16.98;46.52
54870;BME280;40756;-37.950;145.008;2023-07-28T01:41:46;101483.31;;;16.87;46.66
54870;BME280;40756;-37.950;145.008;2023-07-28T01:44:15;101482.80;;;16.02;46.53
54870;BME280;40756;-37.950;145.008;2023-07-28T01:46:45;101486.95;;;17.12;45.87
54870;BME280;40756;-37.950;145.008;2023-07-28T01:49:19;101478.46;;;16.75;46.55
54870;BME280;40756;-37.950;145.008;2023-07-28T01:51:49;101471.10;;;16.77;44.83
54870;BME280;40756;-37.950;145.008;2023-07-28T01:55:24;101462.48;;;17.15;44.75
54870;BME280;40756;-37.950;145.008;2023-07-28T01:57:56;101449.70;;;17.47;44.01
54870;BME280;40756;-37.950;145.008;2023-07-28T02:00:26;101449.62;;;17.87;43.47
54870;BME280;40756;-37.950;145.008;2023-07-28T02:02:57;101439.93;;;17.85;43.02
54870;BME280;40756;-37.950;145.008;2023-07-28T02:05:26;101431.18;;;17.58;43.26
54870;BME280;40756;-37.950;145.008;2023-07-28T02:07:55;101432.96;;;17.85;43.16
54870;BME280;40756;-37.950;145.008;2023-07-28T02:10:26;101423.81;;;17.87;42.87
54870;BME280;40756;-37.950;145.008;2023-07-28T02:12:57;101421.86;;;18.45;41.92
54870;BME280;40756;-37.950;145.008;2023-07-28T02:15:26;101428.93;;;18.52;41.57
54870;BME280;40756;-37.950;145.008;2023-07-28T02:17:56;101426.85;;;18.43;40.96
54870;BME280;40756;-37.950;145.008;2023-07-28T02:20:25;101429.39;;;18.28;40.42
54870;BME280;40756;-37.950;145.008;2023-07-28T02:22:55;101426.74;;;18.81;40.15
54870;BME280;40756;-37.950;145.008;2023-07-28T02:25:24;101419.75;;;18.68;39.94
54870;BME280;40756;-37.950;145.008;2023-07-28T02:27:54;101420.68;;;19.31;40.35
54870;BME280;40756;-37.950;145.008;2023-07-28T02:30:23;101423.83;;;19.39;39.33
54870;BME280;40756;-37.950;145.008;2023-07-28T02:32:53;101421.33;;;19.07;38.81
54870;BME280;40756;-37.950;145.008;2023-07-28T02:35:22;101417.98;;;19.34;38.71
54870;BME280;40756;-37.950;145.008;2023-07-28T02:37:52;101408.91;;;19.51;38.53
54870;BME280;40756;-37.950;145.008;2023-07-28T02:40:21;101401.18;;;18.54;39.19
54870;BME280;40756;-37.950;145.008;2023-07-28T02:42:51;101394.69;;;18.41;39.55
54870;BME280;40756;-37.950;145.008;2023-07-28T02:45:20;101389.96;;;18.41;39.94
54870;BME280;40756;-37.950;145.008;2023-07-28T02:47:50;101385.06;;;18.73;39.81
54870;BME280;40756;-37.950;145.008;2023-07-28T02:50:19;101389.75;;;18.10;40.02
54870;BME280;40756;-37.950;145.008;2023-07-28T02:52:49;101384.26;;;18.38;40.32
54870;BME280;40756;-37.950;145.008;2023-07-28T02:55:18;101373.39;;;18.73;39.67
54870;BME280;40756;-37.950;145.008;2023-07-28T02:57:48;101372.94;;;18.23;39.61
54870;BME280;40756;-37.950;145.008;2023-07-28T03:00:18;101368.33;;;18.46;39.64
54870;BME280;40756;-37.950;145.008;2023-07-28T03:02:47;101361.49;;;18.90;39.74
54870;BME280;40756;-37.950;145.008;2023-07-28T03:05:17;101359.02;;;19.09;39.19
54870;BME280;40756;-37.950;145.008;2023-07-28T03:07:48;101353.91;;;19.16;37.75
54870;BME280;40756;-37.950;145.008;2023-07-28T03:10:18;101349.37;;;19.51;37.34
54870;BME280;40756;-37.950;145.008;2023-07-28T03:12:47;101344.04;;;20.09;37.23
54870;BME280;40756;-37.950;145.008;2023-07-28T03:15:17;101337.70;;;20.02;36.43
54870;BME280;40756;-37.950;145.008;2023-07-28T03:17:46;101337.66;;;19.73;36.76
54870;BME280;40756;-37.950;145.008;2023-07-28T03:20:16;101329.06;;;19.95;35.17
54870;BME280;40756;-37.950;145.008;2023-07-28T03:22:45;101325.20;;;20.38;35.53
54870;BME280;40756;-37.950;145.008;2023-07-28T03:25:15;101319.52;;;21.26;33.41
54870;BME280;40756;-37.950;145.008;2023-07-28T03:27:44;101322.25;;;21.09;33.38
54870;BME280;40756;-37.950;145.008;2023-07-28T03:30:14;101329.53;;;20.87;32.97
54870;BME280;40756;-37.950;145.008;2023-07-28T03:32:43;101326.18;;;20.38;34.37
54870;BME280;40756;-37.950;145.008;2023-07-28T03:35:13;101330.83;;;19.93;35.29
54870;BME280;40756;-37.950;145.008;2023-07-28T03:37:42;101322.53;;;19.71;34.96
54870;BME280;40756;-37.950;145.008;2023-07-28T03:40:12;101320.57;;;19.87;35.02
54870;BME280;40756;-37.950;145.008;2023-07-28T03:42:41;101308.53;;;20.08;34.36
54870;BME280;40756;-37.950;145.008;2023-07-28T03:45:11;101314.04;;;20.20;33.76
54870;BME280;40756;-37.950;145.008;2023-07-28T03:47:40;101310.14;;;20.87;33.72
54870;BME280;40756;-37.950;145.008;2023-07-28T03:50:10;101308.79;;;20.85;33.15
54870;BME280;40756;-37.950;145.008;2023-07-28T03:52:39;101305.71;;;21.07;33.44
54870;BME280;40756;-37.950;145.008;2023-07-28T03:55:09;101306.12;;;21.68;31.16
54870;BME280;40756;-37.950;145.008;2023-07-28T03:57:38;101300.72;;;21.33;30.66
54870;BME280;40756;-37.950;145.008;2023-07-28T04:00:08;101298.51;;;20.98;32.93
54870;BME280;40756;-37.950;145.008;2023-07-28T04:02:38;101294.64;;;21.12;31.18
54870;BME280;40756;-37.950;145.008;2023-07-28T04:05:08;101294.55;;;20.59;31.26
54870;BME280;40756;-37.950;145.008;2023-07-28T04:07:38;101296.76;;;21.45;31.12
54870;BME280;40756;-37.950;145.008;2023-07-28T04:10:08;101293.53;;;21.10;32.40
54870;BME280;40756;-37.950;145.008;2023-07-28T04:12:37;101302.05;;;20.50;32.42
54870;BME280;40756;-37.950;145.008;2023-07-28T04:15:08;101296.57;;;21.55;31.41
54870;BME280;40756;-37.950;145.008;2023-07-28T04:17:38;101295.86;;;20.63;31.96
54870;BME280;40756;-37.950;145.008;2023-07-28T04:20:09;101293.10;;;21.99;29.88
54870;BME280;40756;-37.950;145.008;2023-07-28T04:22:39;101284.74;;;21.68;29.87
54870;BME280;40756;-37.950;145.008;2023-07-28T04:25:09;101283.77;;;21.67;29.73
54870;BME280;40756;-37.950;145.008;2023-07-28T04:27:38;101285.51;;;21.53;29.78
54870;BME280;40756;-37.950;145.008;2023-07-28T04:30:09;101287.25;;;20.71;30.19
54870;BME280;40756;-37.950;145.008;2023-07-28T04:32:38;101292.71;;;21.84;29.26
54870;BME280;40756;-37.950;145.008;2023-07-28T04:35:08;101293.56;;;21.31;29.82
54870;BME280;40756;-37.950;145.008;2023-07-28T04:37:47;101291.13;;;21.71;28.97
54870;BME280;40756;-37.950;145.008;2023-07-28T04:40:17;101295.46;;;21.97;28.82
54870;BME280;40756;-37.950;145.008;2023-07-28T04:42:47;101299.99;;;20.96;29.54
54870;BME280;40756;-37.950;145.008;2023-07-28T04:45:16;101289.83;;;21.54;29.34
54870;BME280;40756;-37.950;145.008;2023-07-28T04:47:45;101293.44;;;19.98;31.66
54870;BME280;40756;-37.950;145.008;2023-07-28T04:50:15;101293.92;;;19.77;32.35
54870;BME280;40756;-37.950;145.008;2023-07-28T04:52:44;101291.08;;;20.58;31.47
54870;BME280;40756;-37.950;145.008;2023-07-28T04:55:14;101285.59;;;20.34;30.17
54870;BME280;40756;-37.950;145.008;2023-07-28T04:57:43;101288.85;;;20.74;32.56
54870;BME280;40756;-37.950;145.008;2023-07-28T05:00:14;101290.88;;;19.66;31.48
54870;BME280;40756;-37.950;145.008;2023-07-28T05:02:43;101296.09;;;19.08;32.18
54870;BME280;40756;-37.950;145.008;2023-07-28T05:05:13;101305.22;;;19.51;31.89
54870;BME280;40756;-37.950;145.008;2023-07-28T05:07:42;101297.53;;;19.87;31.41
54870;BME280;40756;-37.950;145.008;2023-07-28T05:10:12;101296.72;;;19.22;31.55
54870;BME280;40756;-37.950;145.008;2023-07-28T05:12:41;101304.16;;;19.47;32.12
54870;BME280;40756;-37.950;145.008;2023-07-28T05:15:13;101307.26;;;19.92;30.82
54870;BME280;40756;-37.950;145.008;2023-07-28T05:17:43;101305.84;;;20.02;31.22
54870;BME280;40756;-37.950;145.008;2023-07-28T05:20:13;101302.73;;;20.46;30.58
54870;BME280;40756;-37.950;145.008;2023-07-28T05:22:43;101300.72;;;20.10;30.78
54870;BME280;40756;-37.950;145.008;2023-07-28T05:25:12;101308.47;;;19.87;31.31
54870;BME280;40756;-37.950;145.008;2023-07-28T05:27:42;101324.89;;;19.10;32.42
54870;BME280;40756;-37.950;145.008;2023-07-28T05:30:11;101315.47;;;19.69;32.37
54870;BME280;40756;-37.950;145.008;2023-07-28T05:32:40;101324.11;;;19.78;32.14
54870;BME280;40756;-37.950;145.008;2023-07-28T05:35:10;101332.34;;;19.99;32.49
54870;BME280;40756;-37.950;145.008;2023-07-28T05:37:39;101331.19;;;19.61;32.30
54870;BME280;40756;-37.950;145.008;2023-07-28T05:40:10;101333.79;;;18.39;33.23
54870;BME280;40756;-37.950;145.008;2023-07-28T05:42:40;101333.03;;;19.92;32.13
54870;BME280;40756;-37.950;145.008;2023-07-28T05:45:11;101326.36;;;19.26;33.17
54870;BME280;40756;-37.950;145.008;2023-07-28T05:47:40;101323.50;;;19.29;32.27
54870;BME280;40756;-37.950;145.008;2023-07-28T05:50:10;101331.37;;;19.79;32.20
54870;BME280;40756;-37.950;145.008;2023-07-28T05:52:39;101328.67;;;19.99;33.78
54870;BME280;40756;-37.950;145.008;2023-07-28T05:55:09;101331.53;;;20.04;31.62
54870;BME280;40756;-37.950;145.008;2023-07-28T05:57:39;101332.66;;;20.30;34.93
54870;BME280;40756;-37.950;145.008;2023-07-28T06:00:09;101339.42;;;19.76;32.00
54870;BME280;40756;-37.950;145.008;2023-07-28T06:02:39;101351.31;;;18.34;34.37
54870;BME280;40756;-37.950;145.008;2023-07-28T06:05:09;101354.71;;;19.34;36.30
54870;BME280;40756;-37.950;145.008;2023-07-28T06:07:39;101350.48;;;18.90;36.31
54870;BME280;40756;-37.950;145.008;2023-07-28T06:10:09;101358.26;;;19.30;34.67
54870;BME280;40756;-37.950;145.008;2023-07-28T06:12:39;101360.99;;;19.44;34.00
54870;BME280;40756;-37.950;145.008;2023-07-28T06:15:09;101363.12;;;18.73;35.28
54870;BME280;40756;-37.950;145.008;2023-07-28T06:17:39;101372.46;;;18.72;35.72
54870;BME280;40756;-37.950;145.008;2023-07-28T06:20:10;101380.75;;;18.41;36.47
54870;BME280;40756;-37.950;145.008;2023-07-28T06:22:39;101380.35;;;17.79;36.93
54870;BME280;40756;-37.950;145.008;2023-07-28T06:25:09;101386.85;;;18.50;36.84
54870;BME280;40756;-37.950;145.008;2023-07-28T06:27:40;101385.03;;;18.52;37.28
54870;BME280;40756;-37.950;145.008;2023-07-28T06:30:10;101390.73;;;18.35;36.89
54870;BME280;40756;-37.950;145.008;2023-07-28T06:32:39;101396.00;;;18.37;38.31
54870;BME280;40756;-37.950;145.008;2023-07-28T06:35:09;101396.53;;;18.66;36.33
54870;BME280;40756;-37.950;145.008;2023-07-28T06:37:39;101392.94;;;18.51;36.54
54870;BME280;40756;-37.950;145.008;2023-07-28T06:40:09;101396.10;;;18.79;36.34
54870;BME280;40756;-37.950;145.008;2023-07-28T06:42:39;101399.18;;;18.87;36.91
54870;BME280;40756;-37.950;145.008;2023-07-28T06:45:09;101393.70;;;18.72;37.26
54870;BME280;40756;-37.950;145.008;2023-07-28T06:47:39;101400.53;;;18.92;36.03
54870;BME280;40756;-37.950;145.008;2023-07-28T06:50:08;101397.89;;;18.76;37.28
54870;BME280;40756;-37.950;145.008;2023-07-28T06:52:38;101402.94;;;18.83;35.60
54870;BME280;40756;-37.950;145.008;2023-07-28T06:55:08;101405.24;;;18.72;36.81
54870;BME280;40756;-37.950;145.008;2023-07-28T06:57:37;101408.43;;;18.40;36.65
54870;BME280;40756;-37.950;145.008;2023-07-28T07:00:08;101410.21;;;17.79;37.55
54870;BME280;40756;-37.950;145.008;2023-07-28T07:02:38;101412.63;;;18.14;36.99
54870;BME280;40756;-37.950;145.008;2023-07-28T07:05:08;101412.05;;;18.26;36.99
54870;BME280;40756;-37.950;145.008;2023-07-28T07:07:37;101415.08;;;18.41;37.55
54870;BME280;40756;-37.950;145.008;2023-07-28T07:10:08;101414.51;;;18.26;37.93
54870;BME280;40756;-37.950;145.008;2023-07-28T07:12:38;101417.44;;;18.33;38.07
54870;BME280;40756;-37.950;145.008;2023-07-28T07:15:08;101424.81;;;18.60;37.70
54870;BME280;40756;-37.950;145.008;2023-07-28T07:17:37;101426.92;;;18.53;37.74
54870;BME280;40756;-37.950;145.008;2023-07-28T07:20:09;101430.08;;;18.45;38.45
54870;BME280;40756;-37.950;145.008;2023-07-28T07:22:39;101434.88;;;18.63;37.70
54870;BME280;40756;-37.950;145.008;2023-07-28T07:25:09;101435.61;;;18.34;38.08
54870;BME280;40756;-37.950;145.008;2023-07-28T07:27:38;101443.38;;;18.28;37.99
54870;BME280;40756;-37.950;145.008;2023-07-28T07:30:08;101439.43;;;18.31;38.50
54870;BME280;40756;-37.950;145.008;2023-07-28T07:32:38;101443.65;;;18.50;38.65
54870;BME280;40756;-37.950;145.008;2023-07-28T07:35:08;101441.29;;;18.22;38.37
54870;BME280;40756;-37.950;145.008;2023-07-28T07:37:38;101444.14;;;18.43;38.74
54870;BME280;40756;-37.950;145.008;2023-07-28T07:40:09;101449.15;;;18.04;38.57
54870;BME280;40756;-37.950;145.008;2023-07-28T07:42:49;101449.11;;;18.37;37.83
54870;BME280;40756;-37.950;145.008;2023-07-28T07:45:19;101461.10;;;18.36;38.51
54870;BME280;40756;-37.950;145.008;2023-07-28T07:47:48;101461.32;;;18.02;38.83
54870;BME280;40756;-37.950;145.008;2023-07-28T07:50:18;101465.83;;;17.87;39.21
54870;BME280;40756;-37.950;145.008;2023-07-28T07:52:47;101471.69;;;17.58;39.83
54870;BME280;40756;-37.950;145.008;2023-07-28T07:55:17;101471.32;;;17.62;39.57
54870;BME280;40756;-37.950;145.008;2023-07-28T07:57:47;101475.87;;;18.03;39.48
54870;BME280;40756;-37.950;145.008;2023-07-28T08:00:17;101473.79;;;18.15;39.58
54870;BME280;40756;-37.950;145.008;2023-07-28T08:02:46;101475.60;;;17.20;38.32
54870;BME280;40756;-37.950;145.008;2023-07-28T08:05:16;101475.29;;;17.49;38.46
54870;BME280;40756;-37.950;145.008;2023-07-28T08:07:46;101478.88;;;17.57;39.51
54870;BME280;40756;-37.950;145.008;2023-07-28T08:10:15;101479.93;;;16.81;40.13
54870;BME280;40756;-37.950;145.008;2023-07-28T08:12:45;101485.09;;;17.18;40.58
54870;BME280;40756;-37.950;145.008;2023-07-28T08:15:14;101486.07;;;17.10;41.71
54870;BME280;40756;-37.950;145.008;2023-07-28T08:17:44;101489.86;;;17.17;42.33
54870;BME280;40756;-37.950;145.008;2023-07-28T08:20:15;101490.79;;;17.05;43.23
54870;BME280;40756;-37.950;145.008;2023-07-28T08:22:45;101492.05;;;17.04;42.94
54870;BME280;40756;-37.950;145.008;2023-07-28T08:25:14;101496.10;;;17.48;42.44
54870;BME280;40756;-37.950;145.008;2023-07-28T08:27:49;101497.53;;;16.96;43.11
54870;BME280;40756;-37.950;145.008;2023-07-28T08:30:19;101498.64;;;17.08;42.98
54870;BME280;40756;-37.950;145.008;2023-07-28T08:32:48;101500.43;;;17.10;43.32
54870;BME280;40756;-37.950;145.008;2023-07-28T08:35:18;101507.74;;;17.42;42.64
54870;BME280;40756;-37.950;145.008;2023-07-28T08:37:49;101510.10;;;17.29;42.85
54870;BME280;40756;-37.950;145.008;2023-07-28T08:40:18;101512.12;;;17.50;42.50
54870;BME280;40756;-37.950;145.008;2023-07-28T08:42:48;101517.17;;;17.01;42.94
54870;BME280;40756;-37.950;145.008;2023-07-28T08:45:19;101520.05;;;17.33;42.64
54870;BME280;40756;-37.950;145.008;2023-07-28T08:47:48;101523.40;;;17.35;42.98
54870;BME280;40756;-37.950;145.008;2023-07-28T08:50:18;101523.66;;;16.85;43.05
54870;BME280;40756;-37.950;145.008;2023-07-28T08:52:48;101527.62;;;16.65;43.04
54870;BME280;40756;-37.950;145.008;2023-07-28T08:55:17;101525.13;;;16.50;43.69
54870;BME280;40756;-37.950;145.008;2023-07-28T08:57:47;101525.12;;;16.47;43.52
54870;BME280;40756;-37.950;145.008;2023-07-28T09:00:17;101534.47;;;16.23;43.63
54870;BME280;40756;-37.950;145.008;2023-07-28T09:02:50;101536.50;;;15.85;43.65
54870;BME280;40756;-37.950;145.008;2023-07-28T09:05:20;101541.53;;;16.34;43.94
54870;BME280;40756;-37.950;145.008;2023-07-28T09:07:50;101546.21;;;16.59;43.99
54870;BME280;40756;-37.950;145.008;2023-07-28T09:10:19;101549.04;;;15.78;44.36
54870;BME280;40756;-37.950;145.008;2023-07-28T09:12:50;101552.57;;;16.04;44.85
54870;BME280;40756;-37.950;145.008;2023-07-28T09:15:19;101556.18;;;16.60;44.67
54870;BME280;40756;-37.950;145.008;2023-07-28T09:17:49;101556.03;;;16.42;45.15
54870;BME280;40756;-37.950;145.008;2023-07-28T09:20:20;101552.99;;;16.52;46.28
54870;BME280;40756;-37.950;145.008;2023-07-28T09:22:51;101548.47;;;17.07;45.12
54870;BME280;40756;-37.950;145.008;2023-07-28T09:25:22;101554.26;;;17.44;43.95
54870;BME280;40756;-37.950;145.008;2023-07-28T09:27:52;101564.25;;;18.33;42.31
54870;BME280;40756;-37.950;145.008;2023-07-28T09:30:24;101564.85;;;17.98;42.44
54870;BME280;40756;-37.950;145.008;2023-07-28T09:32:55;101565.69;;;17.69;42.85
54870;BME280;40756;-37.950;145.008;2023-07-28T09:35:25;101565.49;;;16.92;44.27
54870;BME280;40756;-37.950;145.008;2023-07-28T09:37:54;101568.67;;;16.38;45.25
54870;BME280;40756;-37.950;145.008;2023-07-28T09:40:24;101574.08;;;16.29;45.94
54870;BME280;40756;-37.950;145.008;2023-07-28T09:42:53;101572.45;;;16.14;46.83
54870;BME280;40756;-37.950;145.008;2023-07-28T09:45:23;101574.66;;;15.55;47.11
54870;BME280;40756;-37.950;145.008;2023-07-28T09:47:55;101581.53;;;16.00;47.57
54870;BME280;40756;-37.950;145.008;2023-07-28T09:50:25;101576.93;;;15.66;48.49
54870;BME280;40756;-37.950;145.008;2023-07-28T09:53:01;101583.74;;;15.94;47.98
54870;BME280;40756;-37.950;145.008;2023-07-28T09:55:31;101583.95;;;15.92;47.89
54870;BME280;40756;-37.950;145.008;2023-07-28T09:58:05;101581.29;;;15.60;48.69
54870;BME280;40756;-37.950;145.008;2023-07-28T10:00:35;101581.02;;;15.68;49.29
54870;BME280;40756;-37.950;145.008;2023-07-28T10:03:05;101583.47;;;15.47;49.68
54870;BME280;40756;-37.950;145.008;2023-07-28T10:05:35;101583.13;;;15.39;50.25
54870;BME280;40756;-37.950;145.008;2023-07-28T10:08:06;101584.19;;;15.80;50.10
54870;BME280;40756;-37.950;145.008;2023-07-28T10:10:36;101584.40;;;15.01;50.65
54870;BME280;40756;-37.950;145.008;2023-07-28T10:13:06;101586.42;;;15.40;51.18
54870;BME280;40756;-37.950;145.008;2023-07-28T10:15:35;101592.71;;;15.26;50.92
54870;BME280;40756;-37.950;145.008;2023-07-28T10:18:08;101595.22;;;15.15;51.00
54870;BME280;40756;-37.950;145.008;2023-07-28T10:20:40;101595.75;;;15.38;50.62
54870;BME280;40756;-37.950;145.008;2023-07-28T10:23:14;101597.14;;;15.43;50.59
54870;BME280;40756;-37.950;145.008;2023-07-28T10:25:45;101601.19;;;15.34;50.30
54870;BME280;40756;-37.950;145.008;2023-07-28T10:28:28;101605.73;;;15.42;49.99
54870;BME280;40756;-37.950;145.008;2023-07-28T10:30:59;101606.36;;;15.18;50.45
54870;BME280;40756;-37.950;145.008;2023-07-28T10:33:30;101608.13;;;15.11;50.65
54870;BME280;40756;-37.950;145.008;2023-07-28T10:36:08;101609.59;;;15.30;50.58
54870;BME280;40756;-37.950;145.008;2023-07-28T10:38:39;101609.05;;;15.44;50.08
54870;BME280;40756;-37.950;145.008;2023-07-28T10:41:12;101607.38;;;15.66;50.32
54870;BME280;40756;-37.950;145.008;2023-07-28T10:43:43;101607.06;;;15.25;50.21
54870;BME280;40756;-37.950;145.008;2023-07-28T10:46:16;101611.70;;;14.82;50.93
54870;BME280;40756;-37.950;145.008;2023-07-28T10:48:47;101612.57;;;15.18;50.82
54870;BME280;40756;-37.950;145.008;2023-07-28T10:51:26;101616.62;;;15.42;50.56
54870;BME280;40756;-37.950;145.008;2023-07-28T10:53:57;101618.89;;;15.96;49.78
54870;BME280;40756;-37.950;145.008;2023-07-28T10:56:27;101622.00;;;15.08;50.46
54870;BME280;40756;-37.950;145.008;2023-07-28T10:59:00;101623.21;;;15.43;50.34
54870;BME280;40756;-37.950;145.008;2023-07-28T11:01:34;101623.30;;;15.41;50.51
54870;BME280;40756;-37.950;145.008;2023-07-28T11:04:13;101622.01;;;15.47;50.34
54870;BME280;40756;-37.950;145.008;2023-07-28T11:06:44;101624.33;;;15.08;50.80
54870;BME280;40756;-37.950;145.008;2023-07-28T11:09:16;101625.28;;;15.14;50.44
54870;BME280;40756;-37.950;145.008;2023-07-28T11:11:45;101632.75;;;15.23;50.41
54870;BME280;40756;-37.950;145.008;2023-07-28T11:14:16;101635.61;;;15.59;49.98
54870;BME280;40756;-37.950;145.008;2023-07-28T11:16:46;101634.70;;;15.47;50.03
54870;BME280;40756;-37.950;145.008;2023-07-28T11:19:15;101638.77;;;15.75;49.98
54870;BME280;40756;-37.950;145.008;2023-07-28T11:21:46;101641.18;;;15.21;50.14
54870;BME280;40756;-37.950;145.008;2023-07-28T11:24:19;101642.16;;;15.33;50.25
54870;BME280;40756;-37.950;145.008;2023-07-28T11:26:52;101642.32;;;15.18;50.48
54870;BME280;40756;-37.950;145.008;2023-07-28T11:29:22;101645.93;;;15.08;50.65
54870;BME280;40756;-37.950;145.008;2023-07-28T11:31:52;101642.00;;;15.01;51.22
54870;BME280;40756;-37.950;145.008;2023-07-28T11:34:22;101642.51;;;15.06;51.74
54870;BME280;40756;-37.950;145.008;2023-07-28T11:36:51;101642.03;;;15.08;51.74
54870;BME280;40756;-37.950;145.008;2023-07-28T11:39:21;101642.24;;;15.21;51.40
54870;BME280;40756;-37.950;145.008;2023-07-28T11:41:52;101644.70;;;15.02;51.69
54870;BME280;40756;-37.950;145.008;2023-07-28T11:44:21;101642.17;;;14.62;52.26
54870;BME280;40756;-37.950;145.008;2023-07-28T11:46:51;101645.29;;;14.46;52.20
54870;BME280;40756;-37.950;145.008;2023-07-28T11:49:21;101641.27;;;14.71;52.07
54870;BME280;40756;-37.950;145.008;2023-07-28T11:51:52;101643.28;;;14.89;52.22
54870;BME280;40756;-37.950;145.008;2023-07-28T11:54:24;101643.29;;;14.65;52.00
54870;BME280;40756;-37.950;145.008;2023-07-28T11:56:56;101638.67;;;14.59;52.20
54870;BME280;40756;-37.950;145.008;2023-07-28T11:59:26;101639.80;;;14.80;52.29
54870;BME280;40756;-37.950;145.008;2023-07-28T12:01:58;101637.11;;;14.65;52.14
54870;BME280;40756;-37.950;145.008;2023-07-28T12:04:28;101636.89;;;15.10;51.83
54870;BME280;40756;-37.950;145.008;2023-07-28T12:07:08;101634.43;;;15.08;51.87
54870;BME280;40756;-37.950;145.008;2023-07-28T12:09:53;101634.26;;;15.08;51.81
54870;BME280;40756;-37.950;145.008;2023-07-28T12:12:24;101631.86;;;14.77;51.92
54870;BME280;40756;-37.950;145.008;2023-07-28T12:14:54;101633.29;;;15.03;51.87
54870;BME280;40756;-37.950;145.008;2023-07-28T12:17:25;101635.68;;;15.19;51.60
54870;BME280;40756;-37.950;145.008;2023-07-28T12:20:00;101631.87;;;15.45;51.24
54870;BME280;40756;-37.950;145.008;2023-07-28T12:22:32;101632.86;;;15.22;51.52
54870;BME280;40756;-37.950;145.008;2023-07-28T12:25:01;101626.13;;;15.35;51.44
54870;BME280;40756;-37.950;145.008;2023-07-28T12:27:31;101633.38;;;15.21;51.40
54870;BME280;40756;-37.950;145.008;2023-07-28T12:30:03;101626.77;;;15.20;51.05
54870;BME280;40756;-37.950;145.008;2023-07-28T12:32:32;101627.94;;;15.15;51.32
54870;BME280;40756;-37.950;145.008;2023-07-28T12:35:02;101625.41;;;15.41;50.69
54870;BME280;40756;-37.950;145.008;2023-07-28T12:37:31;101624.94;;;15.31;50.79